sensor_id;sensor_type;location;lat;lon;timestamp;P1;durP1;ratioP1;P2;durP2;ratioP2
2408;SDS011;8463;48.094;7.970;2023-08-30T00:01:16;4.10;;;2.30;;
2408;SDS011;8463;48.094;7.970;2023-08-30T00:03:42;2.60;;;2.40;;
2408;SDS011;8463;48.094;7.970;2023-08-30T00:06:07;2.90;;;2.70;;
2408;SDS011;8463;48.094;7.970;2023-08-30T00:08:34;3.30;;;3.10;;
2408;SDS011;8463;48.094;7.970;2023-08-30T00:11:02;2.37;;;2.20;;
2408;SDS011;8463;48.094;7.970;2023-08-30T00:13:30;3.00;;;2.80;;
2408;SDS011;8463;48.094;7.970;2023-08-30T00:15:57;3.73;;;2.77;;
2408;SDS011;8463;48.094;7.970;2023-08-30T00:18:22;3.50;;;3.20;;
2408;SDS011;8463;48.094;7.970;2023-08-30T00:20:48;2.90;;;2.70;;
2408;SDS011;8463;48.094;7.970;2023-08-30T00:23:20;2.40;;;2.30;;
2408;SDS011;8463;48.094;7.970;2023-08-30T00:25:46;2.90;;;2.70;;
2408;SDS011;8463;48.094;7.970;2023-08-30T00:28:11;4.33;;;3.33;;
2408;SDS011;8463;48.094;7.970;2023-08-30T00:30:38;3.00;;;2.80;;
2408;SDS011;8463;48.094;7.970;2023-08-30T00:33:10;3.00;;;2.80;;
2408;SDS011;8463;48.094;7.970;2023-08-30T00:35:38;2.80;;;2.60;;
2408;SDS011;8463;48.094;7.970;2023-08-30T00:38:06;2.73;;;2.53;;
2408;SDS011;8463;48.094;7.970;2023-08-30T00:40:37;2.70;;;2.50;;
2408;SDS011;8463;48.094;7.970;2023-08-30T00:43:04;4.97;;;2.90;;
2408;SDS011;8463;48.094;7.970;2023-08-30T00:45:31;4.30;;;3.10;;
2408;SDS011;8463;48.094;7.970;2023-08-30T00:47:57;3.60;;;2.73;;
2408;SDS011;8463;48.094;7.970;2023-08-30T00:50:22;2.83;;;2.63;;
2408;SDS011;8463;48.094;7.970;2023-08-30T00:52:48;2.77;;;2.57;;
2408;SDS011;8463;48.094;7.970;2023-08-30T00:55:14;4.37;;;3.40;;
2408;SDS011;8463;48.094;7.970;2023-08-30T00:57:41;4.67;;;3.30;;
2408;SDS011;8463;48.094;7.970;2023-08-30T01:00:07;3.93;;;3.53;;
2408;SDS011;8463;48.094;7.970;2023-08-30T01:02:34;4.80;;;4.50;;
2408;SDS011;8463;48.094;7.970;2023-08-30T01:05:02;2.93;;;2.63;;
2408;SDS011;8463;48.094;7.970;2023-08-30T01:07:28;4.20;;;3.83;;
2408;SDS011;8463;48.094;7.970;2023-08-30T01:09:54;3.30;;;3.00;;
2408;SDS011;8463;48.094;7.970;2023-08-30T01:12:23;3.00;;;2.80;;
2408;SDS011;8463;48.094;7.970;2023-08-30T01:15:21;3.43;;;3.13;;
2408;SDS011;8463;48.094;7.970;2023-08-30T01:17:51;3.03;;;2.80;;
2408;SDS011;8463;48.094;7.970;2023-08-30T01:20:19;3.50;;;3.30;;
2408;SDS011;8463;48.094;7.970;2023-08-30T01:25:51;3.70;;;3.37;;
2408;SDS011;8463;48.094;7.970;2023-08-30T01:28:47;3.63;;;3.33;;
2408;SDS011;8463;48.094;7.970;2023-08-30T01:31:14;3.73;;;3.30;;
2408;SDS011;8463;48.094;7.970;2023-08-30T01:33:46;3.73;;;3.30;;
2408;SDS011;8463;48.094;7.970;2023-08-30T01:36:13;3.60;;;3.30;;
2408;SDS011;8463;48.094;7.970;2023-08-30T01:38:39;3.60;;;3.30;;
2408;SDS011;8463;48.094;7.970;2023-08-30T01:41:07;3.83;;;3.43;;
2408;SDS011;8463;48.094;7.970;2023-08-30T01:43:33;4.00;;;3.70;;
2408;SDS011;8463;48.094;7.970;2023-08-30T01:46:00;3.83;;;3.43;;
2408;SDS011;8463;48.094;7.970;2023-08-30T01:48:27;3.60;;;3.30;;
2408;SDS011;8463;48.094;7.970;2023-08-30T01:50:54;3.57;;;3.20;;
2408;SDS011;8463;48.094;7.970;2023-08-30T01:53:23;3.63;;;3.33;;
2408;SDS011;8463;48.094;7.970;2023-08-30T01:55:54;3.53;;;3.33;;
2408;SDS011;8463;48.094;7.970;2023-08-30T01:58:22;3.53;;;3.23;;
2408;SDS011;8463;48.094;7.970;2023-08-30T02:00:48;3.43;;;3.20;;
2408;SDS011;8463;48.094;7.970;2023-08-30T02:03:14;3.10;;;2.90;;
2408;SDS011;8463;48.094;7.970;2023-08-30T02:05:47;3.40;;;3.10;;
2408;SDS011;8463;48.094;7.970;2023-08-30T02:11:27;3.80;;;3.47;;
2408;SDS011;8463;48.094;7.970;2023-08-30T02:13:58;3.93;;;3.50;;
2408;SDS011;8463;48.094;7.970;2023-08-30T02:16:25;5.07;;;4.30;;
2408;SDS011;8463;48.094;7.970;2023-08-30T02:18:52;4.30;;;3.00;;
2408;SDS011;8463;48.094;7.970;2023-08-30T02:21:20;3.50;;;3.20;;
2408;SDS011;8463;48.094;7.970;2023-08-30T02:23:50;3.57;;;3.27;;
2408;SDS011;8463;48.094;7.970;2023-08-30T02:26:17;3.80;;;3.50;;
2408;SDS011;8463;48.094;7.970;2023-08-30T02:28:47;4.00;;;3.70;;
2408;SDS011;8463;48.094;7.970;2023-08-30T02:31:12;3.80;;;3.50;;
2408;SDS011;8463;48.094;7.970;2023-08-30T02:33:38;6.00;;;3.97;;
2408;SDS011;8463;48.094;7.970;2023-08-30T02:36:04;4.03;;;3.67;;
2408;SDS011;8463;48.094;7.970;2023-08-30T02:38:30;3.87;;;3.57;;
2408;SDS011;8463;48.094;7.970;2023-08-30T02:40:55;4.23;;;3.77;;
2408;SDS011;8463;48.094;7.970;2023-08-30T02:43:21;4.07;;;3.77;;
2408;SDS011;8463;48.094;7.970;2023-08-30T02:45:50;4.03;;;3.50;;
2408;SDS011;8463;48.094;7.970;2023-08-30T02:48:17;3.90;;;3.60;;
2408;SDS011;8463;48.094;7.970;2023-08-30T02:50:43;3.90;;;3.60;;
2408;SDS011;8463;48.094;7.970;2023-08-30T02:53:08;4.20;;;3.90;;
2408;SDS011;8463;48.094;7.970;2023-08-30T02:55:34;4.37;;;3.47;;
2408;SDS011;8463;48.094;7.970;2023-08-30T02:58:00;4.33;;;3.90;;
2408;SDS011;8463;48.094;7.970;2023-08-30T03:00:26;3.30;;;2.97;;
2408;SDS011;8463;48.094;7.970;2023-08-30T03:02:54;4.27;;;3.17;;
2408;SDS011;8463;48.094;7.970;2023-08-30T03:05:19;4.47;;;4.00;;
2408;SDS011;8463;48.094;7.970;2023-08-30T03:07:45;3.70;;;3.40;;
2408;SDS011;8463;48.094;7.970;2023-08-30T03:10:11;3.60;;;3.30;;
2408;SDS011;8463;48.094;7.970;2023-08-30T03:12:38;3.73;;;3.43;;
2408;SDS011;8463;48.094;7.970;2023-08-30T03:15:04;3.90;;;3.60;;
2408;SDS011;8463;48.094;7.970;2023-08-30T03:17:30;4.67;;;3.40;;
2408;SDS011;8463;48.094;7.970;2023-08-30T03:19:56;3.50;;;3.20;;
2408;SDS011;8463;48.094;7.970;2023-08-30T03:22:22;3.50;;;3.17;;
2408;SDS011;8463;48.094;7.970;2023-08-30T03:24:47;3.70;;;3.40;;
2408;SDS011;8463;48.094;7.970;2023-08-30T03:27:14;4.10;;;3.80;;
2408;SDS011;8463;48.094;7.970;2023-08-30T03:29:40;4.03;;;3.67;;
2408;SDS011;8463;48.094;7.970;2023-08-30T03:32:06;3.70;;;3.10;;
2408;SDS011;8463;48.094;7.970;2023-08-30T03:34:32;3.40;;;3.10;;
2408;SDS011;8463;48.094;7.970;2023-08-30T03:36:58;3.67;;;3.37;;
2408;SDS011;8463;48.094;7.970;2023-08-30T03:39:24;3.80;;;3.30;;
2408;SDS011;8463;48.094;7.970;2023-08-30T03:41:50;6.77;;;4.00;;
2408;SDS011;8463;48.094;7.970;2023-08-30T03:44:15;3.03;;;2.83;;
2408;SDS011;8463;48.094;7.970;2023-08-30T03:46:41;3.30;;;3.00;;
2408;SDS011;8463;48.094;7.970;2023-08-30T03:49:07;4.27;;;3.87;;
2408;SDS011;8463;48.094;7.970;2023-08-30T03:51:33;4.50;;;4.10;;
2408;SDS011;8463;48.094;7.970;2023-08-30T03:53:58;4.57;;;3.87;;
2408;SDS011;8463;48.094;7.970;2023-08-30T03:56:27;4.10;;;3.80;;
2408;SDS011;8463;48.094;7.970;2023-08-30T03:58:53;3.67;;;3.37;;
2408;SDS011;8463;48.094;7.970;2023-08-30T04:01:18;6.37;;;3.47;;
2408;SDS011;8463;48.094;7.970;2023-08-30T04:03:44;4.00;;;3.70;;
2408;SDS011;8463;48.094;7.970;2023-08-30T04:06:09;3.53;;;3.23;;
2408;SDS011;8463;48.094;7.970;2023-08-30T04:08:35;4.37;;;4.07;;
2408;SDS011;8463;48.094;7.970;2023-08-30T04:11:01;3.83;;;3.43;;
2408;SDS011;8463;48.094;7.970;2023-08-30T04:13:37;4.43;;;4.03;;
2408;SDS011;8463;48.094;7.970;2023-08-30T04:16:05;4.53;;;4.17;;
2408;SDS011;8463;48.094;7.970;2023-08-30T04:18:34;4.77;;;4.37;;
2408;SDS011;8463;48.094;7.970;2023-08-30T04:20:59;4.10;;;3.80;;
2408;SDS011;8463;48.094;7.970;2023-08-30T04:23:27;3.83;;;3.40;;
2408;SDS011;8463;48.094;7.970;2023-08-30T04:25:55;3.83;;;3.53;;
2408;SDS011;8463;48.094;7.970;2023-08-30T04:28:21;4.03;;;3.73;;
2408;SDS011;8463;48.094;7.970;2023-08-30T04:30:54;4.10;;;3.80;;
2408;SDS011;8463;48.094;7.970;2023-08-30T04:33:20;4.00;;;3.63;;
2408;SDS011;8463;48.094;7.970;2023-08-30T04:35:50;4.20;;;3.30;;
2408;SDS011;8463;48.094;7.970;2023-08-30T04:38:17;3.80;;;3.50;;
2408;SDS011;8463;48.094;7.970;2023-08-30T04:40:43;3.40;;;3.10;;
2408;SDS011;8463;48.094;7.970;2023-08-30T04:43:08;3.60;;;3.30;;
2408;SDS011;8463;48.094;7.970;2023-08-30T04:45:37;3.70;;;3.40;;
2408;SDS011;8463;48.094;7.970;2023-08-30T04:48:03;3.60;;;3.30;;
2408;SDS011;8463;48.094;7.970;2023-08-30T04:50:31;3.73;;;3.43;;
2408;SDS011;8463;48.094;7.970;2023-08-30T04:52:57;4.13;;;3.83;;
2408;SDS011;8463;48.094;7.970;2023-08-30T04:55:28;4.60;;;3.70;;
2408;SDS011;8463;48.094;7.970;2023-08-30T04:57:54;3.20;;;3.00;;
2408;SDS011;8463;48.094;7.970;2023-08-30T05:00:19;3.30;;;3.10;;
2408;SDS011;8463;48.094;7.970;2023-08-30T05:02:53;3.80;;;3.50;;
2408;SDS011;8463;48.094;7.970;2023-08-30T05:05:19;3.23;;;3.03;;
2408;SDS011;8463;48.094;7.970;2023-08-30T05:07:47;3.83;;;3.50;;
2408;SDS011;8463;48.094;7.970;2023-08-30T05:10:15;3.10;;;2.90;;
2408;SDS011;8463;48.094;7.970;2023-08-30T05:12:41;3.43;;;3.13;;
2408;SDS011;8463;48.094;7.970;2023-08-30T05:15:09;3.93;;;3.47;;
2408;SDS011;8463;48.094;7.970;2023-08-30T05:17:35;3.90;;;3.50;;
2408;SDS011;8463;48.094;7.970;2023-08-30T05:20:01;3.80;;;3.50;;
2408;SDS011;8463;48.094;7.970;2023-08-30T05:22:28;4.00;;;3.60;;
2408;SDS011;8463;48.094;7.970;2023-08-30T05:24:53;2.97;;;2.77;;
2408;SDS011;8463;48.094;7.970;2023-08-30T05:27:20;3.10;;;2.90;;
2408;SDS011;8463;48.094;7.970;2023-08-30T05:29:48;3.20;;;3.00;;
2408;SDS011;8463;48.094;7.970;2023-08-30T05:32:13;3.00;;;2.63;;
2408;SDS011;8463;48.094;7.970;2023-08-30T05:34:41;3.67;;;3.37;;
2408;SDS011;8463;48.094;7.970;2023-08-30T05:37:07;3.70;;;3.40;;
2408;SDS011;8463;48.094;7.970;2023-08-30T05:39:39;3.93;;;3.60;;
2408;SDS011;8463;48.094;7.970;2023-08-30T05:42:07;3.30;;;3.10;;
2408;SDS011;8463;48.094;7.970;2023-08-30T05:44:33;3.30;;;3.00;;
2408;SDS011;8463;48.094;7.970;2023-08-30T05:46:58;5.47;;;2.67;;
2408;SDS011;8463;48.094;7.970;2023-08-30T05:49:24;3.17;;;2.97;;
2408;SDS011;8463;48.094;7.970;2023-08-30T05:51:53;4.17;;;3.77;;
2408;SDS011;8463;48.094;7.970;2023-08-30T05:54:18;4.40;;;4.00;;
2408;SDS011;8463;48.094;7.970;2023-08-30T05:56:44;3.70;;;3.40;;
2408;SDS011;8463;48.094;7.970;2023-08-30T05:59:09;3.90;;;2.70;;
2408;SDS011;8463;48.094;7.970;2023-08-30T06:01:35;2.80;;;2.60;;
2408;SDS011;8463;48.094;7.970;2023-08-30T06:04:01;3.23;;;2.93;;
2408;SDS011;8463;48.094;7.970;2023-08-30T06:06:26;3.47;;;2.60;;
2408;SDS011;8463;48.094;7.970;2023-08-30T06:08:52;2.80;;;2.40;;
2408;SDS011;8463;48.094;7.970;2023-08-30T06:11:18;3.87;;;3.10;;
2408;SDS011;8463;48.094;7.970;2023-08-30T06:13:43;3.67;;;2.97;;
2408;SDS011;8463;48.094;7.970;2023-08-30T06:16:09;2.60;;;2.40;;
2408;SDS011;8463;48.094;7.970;2023-08-30T06:18:43;2.90;;;2.60;;
2408;SDS011;8463;48.094;7.970;2023-08-30T06:21:09;2.30;;;2.03;;
2408;SDS011;8463;48.094;7.970;2023-08-30T06:23:41;3.33;;;2.43;;
2408;SDS011;8463;48.094;7.970;2023-08-30T06:26:09;3.20;;;2.90;;
2408;SDS011;8463;48.094;7.970;2023-08-30T06:28:35;2.70;;;2.50;;
2408;SDS011;8463;48.094;7.970;2023-08-30T06:31:00;2.93;;;2.57;;
2408;SDS011;8463;48.094;7.970;2023-08-30T06:33:26;2.90;;;2.70;;
2408;SDS011;8463;48.094;7.970;2023-08-30T06:35:52;3.03;;;2.50;;
2408;SDS011;8463;48.094;7.970;2023-08-30T06:38:18;2.60;;;2.40;;
2408;SDS011;8463;48.094;7.970;2023-08-30T06:40:45;2.97;;;2.77;;
2408;SDS011;8463;48.094;7.970;2023-08-30T06:43:12;3.17;;;2.97;;
2408;SDS011;8463;48.094;7.970;2023-08-30T06:45:42;2.60;;;2.40;;
2408;SDS011;8463;48.094;7.970;2023-08-30T06:48:08;3.07;;;2.77;;
2408;SDS011;8463;48.094;7.970;2023-08-30T06:50:34;4.43;;;2.73;;
2408;SDS011;8463;48.094;7.970;2023-08-30T06:53:00;2.93;;;2.73;;
2408;SDS011;8463;48.094;7.970;2023-08-30T06:55:27;3.07;;;2.77;;
2408;SDS011;8463;48.094;7.970;2023-08-30T06:57:52;2.90;;;2.70;;
2408;SDS011;8463;48.094;7.970;2023-08-30T07:00:23;4.90;;;3.00;;
2408;SDS011;8463;48.094;7.970;2023-08-30T07:02:51;3.03;;;2.73;;
2408;SDS011;8463;48.094;7.970;2023-08-30T07:05:18;3.50;;;3.20;;
2408;SDS011;8463;48.094;7.970;2023-08-30T07:07:46;2.60;;;2.40;;
2408;SDS011;8463;48.094;7.970;2023-08-30T07:10:11;3.17;;;2.93;;
2408;SDS011;8463;48.094;7.970;2023-08-30T07:12:37;2.90;;;2.60;;
2408;SDS011;8463;48.094;7.970;2023-08-30T07:15:05;2.60;;;2.40;;
2408;SDS011;8463;48.094;7.970;2023-08-30T07:17:31;3.43;;;3.13;;
2408;SDS011;8463;48.094;7.970;2023-08-30T07:19:56;2.80;;;2.60;;
2408;SDS011;8463;48.094;7.970;2023-08-30T07:22:23;2.70;;;2.50;;
2408;SDS011;8463;48.094;7.970;2023-08-30T07:24:49;3.33;;;3.03;;
2408;SDS011;8463;48.094;7.970;2023-08-30T07:27:14;5.43;;;2.60;;
2408;SDS011;8463;48.094;7.970;2023-08-30T07:29:40;2.97;;;2.77;;
2408;SDS011;8463;48.094;7.970;2023-08-30T07:32:09;3.10;;;2.90;;
2408;SDS011;8463;48.094;7.970;2023-08-30T07:34:37;3.80;;;2.93;;
2408;SDS011;8463;48.094;7.970;2023-08-30T07:37:02;3.00;;;2.50;;
2408;SDS011;8463;48.094;7.970;2023-08-30T07:39:31;2.80;;;2.60;;
2408;SDS011;8463;48.094;7.970;2023-08-30T07:41:56;3.20;;;2.93;;
2408;SDS011;8463;48.094;7.970;2023-08-30T07:44:28;2.80;;;2.60;;
2408;SDS011;8463;48.094;7.970;2023-08-30T07:46:53;2.93;;;2.60;;
2408;SDS011;8463;48.094;7.970;2023-08-30T07:49:24;4.17;;;3.30;;
2408;SDS011;8463;48.094;7.970;2023-08-30T07:51:50;2.90;;;2.67;;
2408;SDS011;8463;48.094;7.970;2023-08-30T07:54:15;3.23;;;2.90;;
2408;SDS011;8463;48.094;7.970;2023-08-30T07:56:41;3.50;;;3.20;;
2408;SDS011;8463;48.094;7.970;2023-08-30T07:59:12;3.30;;;3.10;;
2408;SDS011;8463;48.094;7.970;2023-08-30T08:01:38;3.30;;;3.10;;
2408;SDS011;8463;48.094;7.970;2023-08-30T08:04:07;3.53;;;3.33;;
2408;SDS011;8463;48.094;7.970;2023-08-30T08:06:32;2.90;;;2.70;;
2408;SDS011;8463;48.094;7.970;2023-08-30T08:08:58;3.87;;;3.60;;
2408;SDS011;8463;48.094;7.970;2023-08-30T08:11:25;3.53;;;3.23;;
2408;SDS011;8463;48.094;7.970;2023-08-30T08:13:50;3.03;;;2.83;;
2408;SDS011;8463;48.094;7.970;2023-08-30T08:16:16;3.60;;;2.80;;
2408;SDS011;8463;48.094;7.970;2023-08-30T08:18:42;2.93;;;2.37;;
2408;SDS011;8463;48.094;7.970;2023-08-30T08:21:10;3.00;;;2.80;;
2408;SDS011;8463;48.094;7.970;2023-08-30T08:23:36;3.40;;;3.20;;
2408;SDS011;8463;48.094;7.970;2023-08-30T08:26:04;5.17;;;3.43;;
2408;SDS011;8463;48.094;7.970;2023-08-30T08:28:33;4.00;;;3.70;;
2408;SDS011;8463;48.094;7.970;2023-08-30T08:30:58;3.73;;;3.33;;
2408;SDS011;8463;48.094;7.970;2023-08-30T08:33:24;3.37;;;3.07;;
2408;SDS011;8463;48.094;7.970;2023-08-30T08:35:51;3.07;;;2.87;;
2408;SDS011;8463;48.094;7.970;2023-08-30T08:38:17;2.87;;;2.67;;
2408;SDS011;8463;48.094;7.970;2023-08-30T08:40:42;2.80;;;2.60;;
2408;SDS011;8463;48.094;7.970;2023-08-30T08:43:11;3.40;;;3.10;;
2408;SDS011;8463;48.094;7.970;2023-08-30T08:45:40;3.00;;;2.80;;
2408;SDS011;8463;48.094;7.970;2023-08-30T08:48:06;4.03;;;2.93;;
2408;SDS011;8463;48.094;7.970;2023-08-30T08:50:32;3.50;;;3.20;;
2408;SDS011;8463;48.094;7.970;2023-08-30T08:52:59;3.03;;;2.83;;
2408;SDS011;8463;48.094;7.970;2023-08-30T08:55:29;2.90;;;2.60;;
2408;SDS011;8463;48.094;7.970;2023-08-30T08:57:56;3.40;;;3.10;;
2408;SDS011;8463;48.094;7.970;2023-08-30T09:00:23;2.90;;;2.70;;
2408;SDS011;8463;48.094;7.970;2023-08-30T09:02:49;5.20;;;3.67;;
2408;SDS011;8463;48.094;7.970;2023-08-30T09:05:17;4.90;;;3.60;;
2408;SDS011;8463;48.094;7.970;2023-08-30T09:07:44;2.60;;;2.40;;
2408;SDS011;8463;48.094;7.970;2023-08-30T09:10:10;3.50;;;3.30;;
2408;SDS011;8463;48.094;7.970;2023-08-30T09:12:36;3.37;;;3.07;;
2408;SDS011;8463;48.094;7.970;2023-08-30T09:15:02;3.07;;;2.87;;
2408;SDS011;8463;48.094;7.970;2023-08-30T09:17:39;3.30;;;3.00;;
2408;SDS011;8463;48.094;7.970;2023-08-30T09:20:14;3.40;;;3.10;;
2408;SDS011;8463;48.094;7.970;2023-08-30T09:22:40;3.33;;;3.03;;
2408;SDS011;8463;48.094;7.970;2023-08-30T09:25:10;3.40;;;3.10;;
2408;SDS011;8463;48.094;7.970;2023-08-30T09:27:36;4.40;;;3.20;;
2408;SDS011;8463;48.094;7.970;2023-08-30T09:30:06;4.23;;;3.70;;
2408;SDS011;8463;48.094;7.970;2023-08-30T09:32:39;2.90;;;2.70;;
2408;SDS011;8463;48.094;7.970;2023-08-30T09:35:05;2.90;;;2.70;;
2408;SDS011;8463;48.094;7.970;2023-08-30T09:37:32;4.37;;;3.37;;
2408;SDS011;8463;48.094;7.970;2023-08-30T09:39:57;3.33;;;3.13;;
2408;SDS011;8463;48.094;7.970;2023-08-30T09:42:23;4.23;;;3.57;;
2408;SDS011;8463;48.094;7.970;2023-08-30T09:44:49;4.00;;;2.90;;
2408;SDS011;8463;48.094;7.970;2023-08-30T09:47:15;4.10;;;3.80;;
2408;SDS011;8463;48.094;7.970;2023-08-30T09:49:42;4.13;;;3.50;;
2408;SDS011;8463;48.094;7.970;2023-08-30T09:52:10;4.13;;;3.40;;
2408;SDS011;8463;48.094;7.970;2023-08-30T09:54:39;4.07;;;3.40;;
2408;SDS011;8463;48.094;7.970;2023-08-30T09:57:08;3.40;;;3.10;;
2408;SDS011;8463;48.094;7.970;2023-08-30T09:59:35;3.90;;;3.60;;
2408;SDS011;8463;48.094;7.970;2023-08-30T10:02:02;3.57;;;3.27;;
2408;SDS011;8463;48.094;7.970;2023-08-30T10:04:29;3.20;;;3.00;;
2408;SDS011;8463;48.094;7.970;2023-08-30T10:06:57;3.57;;;3.23;;
2408;SDS011;8463;48.094;7.970;2023-08-30T10:09:23;3.97;;;3.67;;
2408;SDS011;8463;48.094;7.970;2023-08-30T10:11:49;4.30;;;3.90;;
2408;SDS011;8463;48.094;7.970;2023-08-30T10:14:16;3.47;;;3.20;;
2408;SDS011;8463;48.094;7.970;2023-08-30T10:16:42;3.70;;;3.37;;
2408;SDS011;8463;48.094;7.970;2023-08-30T10:19:16;4.50;;;4.10;;
2408;SDS011;8463;48.094;7.970;2023-08-30T10:21:44;3.37;;;3.10;;
2408;SDS011;8463;48.094;7.970;2023-08-30T10:24:12;4.60;;;4.20;;
2408;SDS011;8463;48.094;7.970;2023-08-30T10:26:41;3.73;;;3.43;;
2408;SDS011;8463;48.094;7.970;2023-08-30T10:29:09;3.63;;;3.33;;
2408;SDS011;8463;48.094;7.970;2023-08-30T10:31:37;4.10;;;3.80;;
2408;SDS011;8463;48.094;7.970;2023-08-30T10:34:11;3.80;;;3.50;;
2408;SDS011;8463;48.094;7.970;2023-08-30T10:36:42;3.80;;;3.20;;
2408;SDS011;8463;48.094;7.970;2023-08-30T10:39:11;4.07;;;3.77;;
2408;SDS011;8463;48.094;7.970;2023-08-30T10:41:39;3.63;;;3.33;;
2408;SDS011;8463;48.094;7.970;2023-08-30T10:44:22;4.13;;;3.83;;
2408;SDS011;8463;48.094;7.970;2023-08-30T10:46:55;4.03;;;3.10;;
2408;SDS011;8463;48.094;7.970;2023-08-30T10:49:21;3.37;;;3.07;;
2408;SDS011;8463;48.094;7.970;2023-08-30T10:51:56;2.93;;;2.73;;
2408;SDS011;8463;48.094;7.970;2023-08-30T10:54:22;4.40;;;3.60;;
2408;SDS011;8463;48.094;7.970;2023-08-30T10:59:24;3.83;;;3.63;;
2408;SDS011;8463;48.094;7.970;2023-08-30T11:01:51;3.10;;;2.90;;
2408;SDS011;8463;48.094;7.970;2023-08-30T11:04:17;3.17;;;2.97;;
2408;SDS011;8463;48.094;7.970;2023-08-30T11:06:44;3.50;;;3.20;;
2408;SDS011;8463;48.094;7.970;2023-08-30T11:09:15;3.70;;;3.40;;
2408;SDS011;8463;48.094;7.970;2023-08-30T11:11:45;2.90;;;2.70;;
2408;SDS011;8463;48.094;7.970;2023-08-30T11:14:11;5.50;;;2.60;;
2408;SDS011;8463;48.094;7.970;2023-08-30T11:16:38;3.60;;;3.40;;
2408;SDS011;8463;48.094;7.970;2023-08-30T11:19:04;3.30;;;3.00;;
2408;SDS011;8463;48.094;7.970;2023-08-30T11:21:32;3.27;;;3.00;;
2408;SDS011;8463;48.094;7.970;2023-08-30T11:24:01;3.10;;;2.90;;
2408;SDS011;8463;48.094;7.970;2023-08-30T11:26:31;2.57;;;2.37;;
2408;SDS011;8463;48.094;7.970;2023-08-30T11:28:57;2.77;;;2.57;;
2408;SDS011;8463;48.094;7.970;2023-08-30T11:31:28;3.97;;;3.27;;
2408;SDS011;8463;48.094;7.970;2023-08-30T11:33:56;2.40;;;2.20;;
2408;SDS011;8463;48.094;7.970;2023-08-30T11:36:27;2.30;;;2.10;;
2408;SDS011;8463;48.094;7.970;2023-08-30T11:38:56;2.30;;;2.10;;
2408;SDS011;8463;48.094;7.970;2023-08-30T11:41:23;2.40;;;2.20;;
2408;SDS011;8463;48.094;7.970;2023-08-30T11:43:50;2.40;;;2.20;;
2408;SDS011;8463;48.094;7.970;2023-08-30T11:46:17;2.90;;;2.70;;
2408;SDS011;8463;48.094;7.970;2023-08-30T11:48:43;3.50;;;3.20;;
2408;SDS011;8463;48.094;7.970;2023-08-30T11:51:10;2.70;;;2.50;;
2408;SDS011;8463;48.094;7.970;2023-08-30T11:53:36;3.20;;;2.43;;
2408;SDS011;8463;48.094;7.970;2023-08-30T11:56:03;3.10;;;2.40;;
2408;SDS011;8463;48.094;7.970;2023-08-30T11:58:39;2.57;;;2.40;;
2408;SDS011;8463;48.094;7.970;2023-08-30T12:01:10;2.60;;;2.40;;
2408;SDS011;8463;48.094;7.970;2023-08-30T12:03:36;2.43;;;2.23;;
2408;SDS011;8463;48.094;7.970;2023-08-30T12:06:08;2.90;;;2.40;;
2408;SDS011;8463;48.094;7.970;2023-08-30T12:08:35;2.30;;;2.20;;
2408;SDS011;8463;48.094;7.970;2023-08-30T12:11:00;2.93;;;2.07;;
2408;SDS011;8463;48.094;7.970;2023-08-30T12:13:31;2.43;;;2.20;;
2408;SDS011;8463;48.094;7.970;2023-08-30T12:15:58;2.43;;;2.23;;
2408;SDS011;8463;48.094;7.970;2023-08-30T12:18:28;2.60;;;2.40;;
2408;SDS011;8463;48.094;7.970;2023-08-30T12:23:23;4.70;;;2.43;;
2408;SDS011;8463;48.094;7.970;2023-08-30T12:28:45;3.50;;;2.40;;
2408;SDS011;8463;48.094;7.970;2023-08-30T12:31:10;2.53;;;2.33;;
2408;SDS011;8463;48.094;7.970;2023-08-30T12:33:37;1.80;;;1.70;;
2408;SDS011;8463;48.094;7.970;2023-08-30T12:36:04;2.93;;;2.03;;
2408;SDS011;8463;48.094;7.970;2023-08-30T12:38:30;2.07;;;1.90;;
2408;SDS011;8463;48.094;7.970;2023-08-30T12:40:56;2.43;;;2.23;;
2408;SDS011;8463;48.094;7.970;2023-08-30T12:43:22;2.27;;;2.07;;
2408;SDS011;8463;48.094;7.970;2023-08-30T12:45:49;2.37;;;2.17;;
2408;SDS011;8463;48.094;7.970;2023-08-30T12:48:16;2.03;;;1.93;;
2408;SDS011;8463;48.094;7.970;2023-08-30T12:50:46;2.10;;;2.00;;
2408;SDS011;8463;48.094;7.970;2023-08-30T12:53:13;2.70;;;2.50;;
2408;SDS011;8463;48.094;7.970;2023-08-30T12:55:41;1.83;;;1.73;;
2408;SDS011;8463;48.094;7.970;2023-08-30T12:58:07;2.20;;;2.00;;
2408;SDS011;8463;48.094;7.970;2023-08-30T13:00:33;2.30;;;2.10;;
2408;SDS011;8463;48.094;7.970;2023-08-30T13:02:59;3.50;;;2.27;;
2408;SDS011;8463;48.094;7.970;2023-08-30T13:05:25;3.27;;;2.10;;
2408;SDS011;8463;48.094;7.970;2023-08-30T13:07:51;1.80;;;1.70;;
2408;SDS011;8463;48.094;7.970;2023-08-30T13:10:16;3.00;;;2.80;;
2408;SDS011;8463;48.094;7.970;2023-08-30T13:12:42;2.77;;;2.57;;
2408;SDS011;8463;48.094;7.970;2023-08-30T13:15:09;2.30;;;2.10;;
2408;SDS011;8463;48.094;7.970;2023-08-30T13:17:35;2.30;;;2.10;;
2408;SDS011;8463;48.094;7.970;2023-08-30T13:20:01;3.07;;;2.83;;
2408;SDS011;8463;48.094;7.970;2023-08-30T13:22:28;2.63;;;2.37;;
2408;SDS011;8463;48.094;7.970;2023-08-30T13:24:53;2.90;;;2.47;;
2408;SDS011;8463;48.094;7.970;2023-08-30T13:27:19;2.20;;;2.10;;
2408;SDS011;8463;48.094;7.970;2023-08-30T13:29:46;3.87;;;2.00;;
2408;SDS011;8463;48.094;7.970;2023-08-30T13:32:11;2.10;;;1.90;;
2408;SDS011;8463;48.094;7.970;2023-08-30T13:34:37;3.90;;;2.67;;
2408;SDS011;8463;48.094;7.970;2023-08-30T13:37:10;2.63;;;2.43;;
2408;SDS011;8463;48.094;7.970;2023-08-30T13:39:37;2.30;;;2.10;;
2408;SDS011;8463;48.094;7.970;2023-08-30T13:42:03;2.60;;;2.10;;
2408;SDS011;8463;48.094;7.970;2023-08-30T13:44:29;6.43;;;2.60;;
2408;SDS011;8463;48.094;7.970;2023-08-30T13:46:55;3.20;;;2.03;;
2408;SDS011;8463;48.094;7.970;2023-08-30T13:49:21;2.23;;;2.07;;
2408;SDS011;8463;48.094;7.970;2023-08-30T13:51:46;2.17;;;2.07;;
2408;SDS011;8463;48.094;7.970;2023-08-30T13:54:12;3.93;;;2.53;;
2408;SDS011;8463;48.094;7.970;2023-08-30T13:56:38;1.90;;;1.80;;
2408;SDS011;8463;48.094;7.970;2023-08-30T13:59:04;2.20;;;2.00;;
2408;SDS011;8463;48.094;7.970;2023-08-30T14:01:32;2.97;;;2.17;;
2408;SDS011;8463;48.094;7.970;2023-08-30T14:04:00;3.33;;;2.20;;
2408;SDS011;8463;48.094;7.970;2023-08-30T14:06:26;2.97;;;2.20;;
2408;SDS011;8463;48.094;7.970;2023-08-30T14:08:52;2.30;;;2.10;;
2408;SDS011;8463;48.094;7.970;2023-08-30T14:11:18;1.90;;;1.80;;
2408;SDS011;8463;48.094;7.970;2023-08-30T14:13:44;2.83;;;2.00;;
2408;SDS011;8463;48.094;7.970;2023-08-30T14:16:10;1.80;;;1.70;;
2408;SDS011;8463;48.094;7.970;2023-08-30T14:18:36;2.10;;;1.73;;
2408;SDS011;8463;48.094;7.970;2023-08-30T14:21:01;2.13;;;2.03;;
2408;SDS011;8463;48.094;7.970;2023-08-30T14:23:27;4.40;;;2.60;;
2408;SDS011;8463;48.094;7.970;2023-08-30T14:25:57;2.30;;;1.97;;
2408;SDS011;8463;48.094;7.970;2023-08-30T14:28:23;2.53;;;2.23;;
2408;SDS011;8463;48.094;7.970;2023-08-30T14:30:49;2.10;;;1.90;;
2408;SDS011;8463;48.094;7.970;2023-08-30T14:33:15;3.33;;;2.27;;
2408;SDS011;8463;48.094;7.970;2023-08-30T14:35:41;3.40;;;1.93;;
2408;SDS011;8463;48.094;7.970;2023-08-30T14:38:08;2.43;;;1.93;;
2408;SDS011;8463;48.094;7.970;2023-08-30T14:40:33;1.83;;;1.70;;
2408;SDS011;8463;48.094;7.970;2023-08-30T14:42:59;2.50;;;2.33;;
2408;SDS011;8463;48.094;7.970;2023-08-30T14:45:25;2.20;;;1.87;;
2408;SDS011;8463;48.094;7.970;2023-08-30T14:47:51;1.90;;;1.80;;
2408;SDS011;8463;48.094;7.970;2023-08-30T14:50:18;1.87;;;1.77;;
2408;SDS011;8463;48.094;7.970;2023-08-30T14:52:43;2.27;;;2.07;;
2408;SDS011;8463;48.094;7.970;2023-08-30T14:55:10;2.50;;;2.30;;
2408;SDS011;8463;48.094;7.970;2023-08-30T14:57:35;2.90;;;2.70;;
2408;SDS011;8463;48.094;7.970;2023-08-30T15:00:01;3.20;;;2.20;;
2408;SDS011;8463;48.094;7.970;2023-08-30T15:02:27;5.03;;;1.87;;
2408;SDS011;8463;48.094;7.970;2023-08-30T15:04:53;2.40;;;2.20;;
2408;SDS011;8463;48.094;7.970;2023-08-30T15:07:19;3.00;;;1.97;;
2408;SDS011;8463;48.094;7.970;2023-08-30T15:09:46;3.73;;;1.90;;
2408;SDS011;8463;48.094;7.970;2023-08-30T15:12:12;1.80;;;1.70;;
2408;SDS011;8463;48.094;7.970;2023-08-30T15:14:38;2.20;;;2.00;;
2408;SDS011;8463;48.094;7.970;2023-08-30T15:17:06;2.37;;;2.17;;
2408;SDS011;8463;48.094;7.970;2023-08-30T15:19:32;3.77;;;1.90;;
2408;SDS011;8463;48.094;7.970;2023-08-30T15:21:58;4.37;;;2.17;;
2408;SDS011;8463;48.094;7.970;2023-08-30T15:24:24;1.93;;;1.83;;
2408;SDS011;8463;48.094;7.970;2023-08-30T15:26:50;2.17;;;1.87;;
2408;SDS011;8463;48.094;7.970;2023-08-30T15:29:16;2.10;;;1.90;;